Terminal Aerodrome Forecast
Issued by NWS

Home | Current Version | Previous Version | Text Only | Print | Product List | Glossary On
Versions: 1 2 3 4 5 6 7 8 9 10 11 12 13 14 15 16 17 18 19 20 21 22 23 24 25 26 27 28 29 30 31 32 33 34 35 36 37 38 39 40 41 42 43
000
FTAK31 PANC 191238 AAA
TAFADQ
TAF AMD
PADQ 191238Z 1913/2012 36018G26KT P6SM -RA OVC025
      TEMPO 1913/1915 4SM -RA BR BKN015
     FM191500 04016G25KT 5SM -RA BR SCT008 BKN015=

USA.gov is the U.S. government's official web portal to all federal, state and local government web resources and services.